Miami, Florida
Traffic Map
Current Weather Conditions
Miami, Florida
Overcast Thunderstorm
Overcast
24°
Feels Like: 24°
Wind Chill: 24° Ceiling: 4700
Heat Index: 24° Visibility: 10mi
Dew Point: 22° Wind: 13mph
Humidity: 85% Direction: 260° (W)
Pressure: 29.91in Gusts: 22mph
Raw Report DataKMIA 201953Z 26011G19KT 10SM TS SCT022CB BKN047 BKN100 OVC250 24/22 A2991 RMK AO2 RAB10E37 TSB06 SLP127 OCNL LTGIC VC NE TS VC NE MOV NE CB E-SE AND SW-NW-N MOV NE P0011 T02440217
Traffic Incident Summary
Active as of:
Severity:
Category:
InformationThere was an issue retrieving the traffic information for this location. Please try a different location or try again shortly.
Advertisements
Track Severe Weather on mobile